createdAt,value
2019-03-01T00:02:30.356Z,2.57
2019-03-01T00:05:43.203Z,2.87
2019-03-01T00:08:21.534Z,2.33
2019-03-01T00:11:27.945Z,2.90
2019-03-01T00:14:38.345Z,2.33
2019-03-01T00:17:48.893Z,2.57
2019-03-01T00:20:55.845Z,2.37
2019-03-01T00:23:53.199Z,2.50
2019-03-01T00:26:46.135Z,2.30
2019-03-01T00:29:51.153Z,1.97
2019-03-01T00:32:51.571Z,2.07
2019-03-01T00:36:00.727Z,2.30
2019-03-01T00:39:22.829Z,1.63
2019-03-01T00:42:20.999Z,2.20
2019-03-01T00:44:50.969Z,2.10
2019-03-01T00:47:20.784Z,1.63
2019-03-01T00:49:50.908Z,2.07
2019-03-01T00:52:21.441Z,1.97
2019-03-01T00:54:51.998Z,1.70
2019-03-01T00:57:22.556Z,1.93
2019-03-01T00:59:53.138Z,1.83
2019-03-01T01:02:23.625Z,1.80
2019-03-01T01:04:54.382Z,1.80
2019-03-01T01:07:25.031Z,2.00
2019-03-01T01:09:55.221Z,1.90
2019-03-01T01:12:25.489Z,1.90
2019-03-01T01:14:55.703Z,1.67
2019-03-01T01:17:26.206Z,2.00
2019-03-01T01:19:56.472Z,1.77
2019-03-01T01:22:27.021Z,2.00
2019-03-01T01:24:57.468Z,2.10
2019-03-01T01:27:28.012Z,1.80
2019-03-01T01:29:57.535Z,2.50
2019-03-01T01:32:27.885Z,2.13
2019-03-01T01:34:58.382Z,2.43
2019-03-01T01:37:28.640Z,2.27
2019-03-01T01:39:59.138Z,2.23
2019-03-01T01:42:29.413Z,2.00
2019-03-01T01:44:59.596Z,1.60
2019-03-01T01:47:29.577Z,1.70
2019-03-01T01:50:00.305Z,1.80
2019-03-01T01:52:30.465Z,1.90
2019-03-01T01:55:00.497Z,1.90
2019-03-01T01:57:30.447Z,1.93
2019-03-01T02:00:00.684Z,1.83
2019-03-01T02:02:31.057Z,1.80
2019-03-01T02:05:01.169Z,2.10
2019-03-01T02:07:31.317Z,1.83
2019-03-01T02:10:01.694Z,2.73
2019-03-01T02:12:32.171Z,2.00
2019-03-01T02:15:02.594Z,3.00
2019-03-01T02:17:33.222Z,2.30
2019-03-01T02:20:03.814Z,2.03
2019-03-01T02:22:34.152Z,2.30
2019-03-01T02:25:04.924Z,2.10
2019-03-01T02:27:35.404Z,2.03
2019-03-01T02:30:09.334Z,2.27
2019-03-01T02:32:45.686Z,2.40
2019-03-01T02:35:17.713Z,2.40
2019-03-01T02:37:48.251Z,2.60
2019-03-01T02:40:18.252Z,2.33
2019-03-01T02:42:48.336Z,2.40
2019-03-01T02:45:20.208Z,2.30
2019-03-01T02:47:50.933Z,2.50
2019-03-01T02:50:22.991Z,2.30
2019-03-01T02:52:53.211Z,2.20
2019-03-01T02:55:24.683Z,2.37
2019-03-01T02:57:54.897Z,2.03
2019-03-01T03:00:26.684Z,1.90
2019-03-01T03:02:57.035Z,2.10
2019-03-01T03:05:27.640Z,2.03
2019-03-01T03:08:05.975Z,2.10
2019-03-01T03:10:36.430Z,1.93
2019-03-01T03:13:08.849Z,2.30
2019-03-01T03:15:42.102Z,2.20
2019-03-01T03:18:12.594Z,2.13
2019-03-01T03:20:42.729Z,2.10
2019-03-01T03:23:13.365Z,1.90
2019-03-01T03:25:43.890Z,2.40
2019-03-01T03:28:14.082Z,2.53
2019-03-01T03:30:44.749Z,2.47
2019-03-01T03:33:15.381Z,2.73
2019-03-01T03:35:45.498Z,2.70
2019-03-01T03:38:16.197Z,2.73
2019-03-01T03:40:46.364Z,2.17
2019-03-01T03:43:17.002Z,2.70
2019-03-01T03:45:47.695Z,2.57
2019-03-01T03:48:18.280Z,2.17
2019-03-01T03:50:48.695Z,2.10
2019-03-01T03:53:19.008Z,2.47
2019-03-01T03:55:49.552Z,1.97
2019-03-01T03:58:19.978Z,1.73
2019-03-01T04:00:50.246Z,1.80
2019-03-01T04:03:20.535Z,1.77
2019-03-01T04:05:50.971Z,1.30
2019-03-01T04:08:21.285Z,1.43
2019-03-01T04:10:51.880Z,1.47
2019-03-01T04:13:22.114Z,1.70
2019-03-01T04:15:54.179Z,2.00
2019-03-01T04:18:24.736Z,1.90
2019-03-01T04:20:54.524Z,1.70
2019-03-01T04:23:25.157Z,1.70
2019-03-01T04:25:55.347Z,1.60
2019-03-01T04:28:26.017Z,2.20
2019-03-01T04:30:56.667Z,2.57
2019-03-01T04:33:27.291Z,2.30
2019-03-01T04:35:57.865Z,2.13
2019-03-01T04:38:28.575Z,2.13
2019-03-01T04:40:59.204Z,1.97
2019-03-01T04:43:29.462Z,2.03
2019-03-01T04:45:59.990Z,2.10
2019-03-01T04:48:30.579Z,1.90
2019-03-01T04:51:01.228Z,2.00
2019-03-01T04:53:31.683Z,2.10
2019-03-01T04:56:02.075Z,2.00
2019-03-01T04:58:32.331Z,1.93
2019-03-01T05:01:02.219Z,1.83
2019-03-01T05:03:32.487Z,2.03
2019-03-01T05:06:02.770Z,1.70
2019-03-01T05:08:33.348Z,1.83
2019-03-01T05:11:03.634Z,1.83
2019-03-01T05:13:33.825Z,2.00
2019-03-01T05:16:04.438Z,1.50
2019-03-01T05:18:35.115Z,1.50
2019-03-01T05:21:05.295Z,1.60
2019-03-01T05:23:35.474Z,1.50
2019-03-01T05:26:05.936Z,1.60
2019-03-01T05:28:36.147Z,1.60
2019-03-01T05:31:06.353Z,1.93
2019-03-01T05:33:36.991Z,1.40
2019-03-01T05:36:07.144Z,1.50
2019-03-01T05:38:37.682Z,1.30
2019-03-01T05:41:08.069Z,1.57
2019-03-01T05:43:38.648Z,1.40
2019-03-01T05:46:08.774Z,1.27
2019-03-01T05:48:39.239Z,3.50
2019-03-01T05:51:09.431Z,2.40
2019-03-01T05:53:40.127Z,1.23
2019-03-01T05:56:10.355Z,1.43
2019-03-01T05:58:49.263Z,1.20
2019-03-01T06:01:32.952Z,1.30
2019-03-01T06:04:12.745Z,1.07
2019-03-01T06:07:15.343Z,1.00
2019-03-01T06:10:10.197Z,1.13
2019-03-01T06:13:36.498Z,1.00
2019-03-01T06:16:46.425Z,1.20
2019-03-01T06:19:51.236Z,1.10
2019-03-01T06:22:54.726Z,0.90
2019-03-01T06:25:59.331Z,0.90
2019-03-01T06:29:03.821Z,0.80
2019-03-01T06:32:10.595Z,1.00
2019-03-01T06:35:17.768Z,1.00
2019-03-01T06:38:52.255Z,0.93
2019-03-01T06:41:42.440Z,1.00
2019-03-01T06:45:14.666Z,0.80
2019-03-01T06:47:49.681Z,1.00
2019-03-01T06:50:31.491Z,1.10
2019-03-01T06:53:01.667Z,1.07
2019-03-01T06:55:52.725Z,1.03
2019-03-01T06:58:34.519Z,0.80
2019-03-01T07:01:11.594Z,0.83
2019-03-01T07:03:42.431Z,0.80
2019-03-01T07:06:12.923Z,0.80
2019-03-01T07:08:43.600Z,0.83
2019-03-01T07:11:14.156Z,0.90
2019-03-01T07:13:44.353Z,0.87
2019-03-01T07:16:14.363Z,0.90
2019-03-01T07:18:44.563Z,1.00
2019-03-01T07:21:15.054Z,1.10
2019-03-01T07:23:45.672Z,0.90
2019-03-01T07:26:16.019Z,1.10
2019-03-01T07:28:46.167Z,1.17
2019-03-01T07:31:16.842Z,1.10
2019-03-01T07:33:47.440Z,1.20
2019-03-01T07:36:17.814Z,1.20
2019-03-01T07:38:47.880Z,1.10
2019-03-01T07:41:18.505Z,1.70
2019-03-01T07:43:48.927Z,2.30
2019-03-01T07:46:19.503Z,1.70
2019-03-01T07:48:50.101Z,1.67
2019-03-01T07:51:20.350Z,1.30
2019-03-01T07:53:51.039Z,1.17
2019-03-01T07:56:21.703Z,0.90
2019-03-01T07:58:52.333Z,0.73
2019-03-01T08:01:25.733Z,0.60
2019-03-01T08:03:55.131Z,0.40
2019-03-01T08:06:25.657Z,0.50
2019-03-01T08:08:55.855Z,0.50
2019-03-01T08:11:28.470Z,0.50
2019-03-01T08:13:58.348Z,0.60
2019-03-01T08:16:28.926Z,0.50
2019-03-01T08:18:59.055Z,0.30
2019-03-01T08:21:29.719Z,0.30
2019-03-01T08:24:00.307Z,0.40
2019-03-01T08:26:34.058Z,0.40
2019-03-01T08:29:03.466Z,0.50
2019-03-01T08:31:34.033Z,0.60
2019-03-01T08:34:04.395Z,0.70
2019-03-01T08:36:34.907Z,0.53
2019-03-01T08:39:07.077Z,0.63
2019-03-01T08:41:37.363Z,0.50
2019-03-01T08:44:07.864Z,0.70
2019-03-01T08:46:38.335Z,0.60
2019-03-01T08:49:10.615Z,0.50
2019-03-01T08:51:41.047Z,0.70
2019-03-01T08:54:11.597Z,0.70
2019-03-01T08:56:42.038Z,0.50
2019-03-01T08:59:14.083Z,1.00
2019-03-01T09:01:45.228Z,1.07
2019-03-01T09:04:17.452Z,0.77
2019-03-01T09:06:49.030Z,0.60
2019-03-01T09:09:20.979Z,0.50
2019-03-01T09:11:51.449Z,0.50
2019-03-01T09:14:22.821Z,0.60
2019-03-01T09:16:53.528Z,0.47
2019-03-01T09:19:26.059Z,0.60
2019-03-01T09:21:56.523Z,0.50
2019-03-01T09:24:29.208Z,0.70
2019-03-01T09:26:59.306Z,0.50
2019-03-01T09:29:29.555Z,0.53
2019-03-01T09:32:00.109Z,0.40
2019-03-01T09:34:32.177Z,0.50
2019-03-01T09:37:02.907Z,0.40
2019-03-01T09:39:33.383Z,0.73
2019-03-01T09:42:06.248Z,0.60
2019-03-01T09:44:38.321Z,0.80
2019-03-01T09:47:07.829Z,0.60
2019-03-01T09:49:38.273Z,0.50
2019-03-01T09:52:08.921Z,0.80
2019-03-01T09:54:39.148Z,0.70
2019-03-01T09:57:12.399Z,0.40
2019-03-01T09:59:42.791Z,0.70
2019-03-01T10:02:13.387Z,0.53
2019-03-01T10:04:43.975Z,0.67
2019-03-01T10:07:14.445Z,0.70
2019-03-01T10:09:47.144Z,0.60
2019-03-01T10:12:17.739Z,0.70
2019-03-01T10:14:48.433Z,0.70
2019-03-01T10:17:19.019Z,0.60
2019-03-01T10:19:49.643Z,0.60
2019-03-01T10:22:19.855Z,0.50
2019-03-01T10:24:50.324Z,0.60
2019-03-01T10:27:20.839Z,0.60
2019-03-01T10:29:51.451Z,0.60
2019-03-01T10:32:22.011Z,0.40
2019-03-01T10:34:52.656Z,0.50
2019-03-01T10:37:23.032Z,0.60
2019-03-01T10:39:55.579Z,0.90
2019-03-01T10:42:25.876Z,0.70
2019-03-01T10:44:56.152Z,0.50
2019-03-01T10:47:26.736Z,0.50
2019-03-01T10:49:57.431Z,0.50
2019-03-01T10:52:27.646Z,0.50
2019-03-01T10:54:58.295Z,0.40
2019-03-01T10:57:28.939Z,0.60
2019-03-01T10:59:59.478Z,0.50
2019-03-01T11:02:30.101Z,0.40
2019-03-01T11:05:00.650Z,0.60
2019-03-01T11:07:31.085Z,0.50
2019-03-01T11:10:01.708Z,0.40
2019-03-01T11:12:31.909Z,0.40
2019-03-01T11:15:02.085Z,0.40
2019-03-01T11:17:32.681Z,0.40
2019-03-01T11:20:02.832Z,0.40
2019-03-01T11:22:33.023Z,0.50
2019-03-01T11:25:03.753Z,0.50
2019-03-01T11:27:34.213Z,0.50
2019-03-01T11:30:05.123Z,0.40
2019-03-01T11:32:35.042Z,0.50
2019-03-01T11:35:05.897Z,0.50
2019-03-01T11:37:36.610Z,0.50
2019-03-01T11:40:07.695Z,0.50
2019-03-01T11:42:38.305Z,0.60
2019-03-01T11:45:08.803Z,0.40
2019-03-01T11:47:39.075Z,0.50
2019-03-01T11:50:11.483Z,0.50
2019-03-01T11:52:42.057Z,0.60
2019-03-01T11:55:13.019Z,0.50
2019-03-01T11:57:43.421Z,0.67
2019-03-01T12:00:17.157Z,0.50
2019-03-01T12:02:48.201Z,0.50
2019-03-01T12:05:18.210Z,0.60
2019-03-01T12:07:48.604Z,0.53
2019-03-01T12:10:20.461Z,0.50
2019-03-01T12:12:50.813Z,0.60
2019-03-01T12:15:21.553Z,0.43
2019-03-01T12:17:52.088Z,0.37
2019-03-01T12:20:22.762Z,0.60
2019-03-01T12:22:53.376Z,0.43
2019-03-01T12:25:24.411Z,0.50
2019-03-01T12:27:55.035Z,0.50
2019-03-01T12:30:25.619Z,0.50
2019-03-01T12:32:57.629Z,0.60
2019-03-01T12:35:28.283Z,0.70
2019-03-01T12:37:58.436Z,0.70
2019-03-01T12:40:29.132Z,0.80
2019-03-01T12:42:59.356Z,0.80
2019-03-01T12:45:29.588Z,1.00
2019-03-01T12:48:00.219Z,1.20
2019-03-01T12:50:30.806Z,1.00
2019-03-01T12:53:01.433Z,1.10
2019-03-01T12:55:31.522Z,1.27
2019-03-01T12:58:02.168Z,1.30
2019-03-01T13:00:33.787Z,1.30
2019-03-01T13:03:05.121Z,1.43
2019-03-01T13:05:36.461Z,1.57
2019-03-01T13:08:07.159Z,2.00
2019-03-01T13:10:40.298Z,2.00
2019-03-01T13:13:09.763Z,2.47
2019-03-01T13:15:39.642Z,2.43
2019-03-01T13:18:15.699Z,2.60
2019-03-01T13:21:00.773Z,2.37
2019-03-01T13:23:30.685Z,2.40
2019-03-01T13:26:02.993Z,2.77
2019-03-01T13:28:33.733Z,2.40
2019-03-01T13:31:04.279Z,2.43
2019-03-01T13:33:37.417Z,2.43
2019-03-01T13:36:07.427Z,2.67
2019-03-01T13:38:37.861Z,2.60
2019-03-01T13:41:08.157Z,2.37
2019-03-01T13:43:38.959Z,2.30
2019-03-01T13:46:09.113Z,2.13
2019-03-01T13:48:39.322Z,2.60
2019-03-01T13:51:09.819Z,2.67
2019-03-01T13:53:48.761Z,2.73
2019-03-01T13:56:12.243Z,2.80
2019-03-01T13:58:42.803Z,2.73
2019-03-01T14:01:13.124Z,2.70
2019-03-01T14:03:43.427Z,3.03
2019-03-01T14:06:13.570Z,2.60
2019-03-01T14:08:44.097Z,2.40
2019-03-01T14:11:15.068Z,2.47
2019-03-01T14:13:47.801Z,3.00
2019-03-01T14:16:20.579Z,4.67
2019-03-01T14:18:50.519Z,6.07
2019-03-01T14:21:20.784Z,3.83
2019-03-01T14:23:51.376Z,3.40
2019-03-01T14:26:22.031Z,3.13
2019-03-01T14:28:52.507Z,3.00
2019-03-01T14:31:23.039Z,3.00
2019-03-01T14:33:53.595Z,3.00
2019-03-01T14:36:23.833Z,3.10
2019-03-01T14:38:54.526Z,3.43
2019-03-01T14:41:24.837Z,3.33
2019-03-01T14:43:58.651Z,3.10
2019-03-01T14:46:27.202Z,3.20
2019-03-01T14:48:57.722Z,3.93
2019-03-01T14:51:28.323Z,4.10
2019-03-01T14:53:58.493Z,4.40
2019-03-01T14:56:34.822Z,3.67
2019-03-01T14:59:25.873Z,4.30
2019-03-01T15:02:08.187Z,3.03
2019-03-01T15:04:38.177Z,3.60
2019-03-01T15:07:08.773Z,3.20
2019-03-01T15:09:39.327Z,3.03
2019-03-01T15:12:09.608Z,3.10
2019-03-01T15:14:40.263Z,3.30
2019-03-01T15:17:10.871Z,2.90
2019-03-01T15:19:41.287Z,3.30
2019-03-01T15:22:14.267Z,3.40
2019-03-01T15:24:44.967Z,3.70
2019-03-01T15:27:15.752Z,6.50
2019-03-01T15:29:46.355Z,3.70
2019-03-01T15:32:16.655Z,3.07
2019-03-01T15:34:47.265Z,3.20
2019-03-01T15:37:17.832Z,3.40
2019-03-01T15:39:51.267Z,3.43
2019-03-01T15:42:21.138Z,3.63
2019-03-01T15:44:51.863Z,3.60
2019-03-01T15:47:23.803Z,4.00
2019-03-01T15:49:54.762Z,4.27
2019-03-01T15:52:25.308Z,3.43
2019-03-01T15:54:55.445Z,3.97
2019-03-01T15:57:25.959Z,3.47
2019-03-01T15:59:56.396Z,3.40
2019-03-01T16:02:26.903Z,3.10
2019-03-01T16:04:57.238Z,3.67
2019-03-01T16:07:29.000Z,3.27
2019-03-01T16:10:01.091Z,3.40
2019-03-01T16:12:35.051Z,3.63
2019-03-01T16:15:04.117Z,4.17
2019-03-01T16:17:34.531Z,3.87
2019-03-01T16:20:06.006Z,4.17
2019-03-01T16:22:36.543Z,4.30
2019-03-01T16:25:07.629Z,4.17
2019-03-01T16:27:38.667Z,4.53
2019-03-01T16:30:11.336Z,4.33
2019-03-01T16:32:49.555Z,5.43
2019-03-01T16:35:16.778Z,4.73
2019-03-01T16:37:47.903Z,5.20
2019-03-01T16:40:18.531Z,5.03
2019-03-01T16:42:52.813Z,5.60
2019-03-01T16:45:21.824Z,6.00
2019-03-01T16:47:52.379Z,6.40
2019-03-01T16:50:22.660Z,5.53
2019-03-01T16:52:53.242Z,5.23
2019-03-01T16:55:24.391Z,5.47
2019-03-01T16:58:06.289Z,5.50
2019-03-01T17:00:28.186Z,5.67
2019-03-01T17:02:58.792Z,6.33
2019-03-01T17:05:29.030Z,5.83
2019-03-01T17:07:59.847Z,6.63
2019-03-01T17:10:31.426Z,6.33
2019-03-01T17:13:02.064Z,6.47
2019-03-01T17:15:32.695Z,6.40
2019-03-01T17:18:03.250Z,6.43
2019-03-01T17:20:38.335Z,6.70
2019-03-01T17:23:07.347Z,7.00
2019-03-01T17:25:37.595Z,6.77
2019-03-01T17:28:08.318Z,7.40
2019-03-01T17:30:38.531Z,6.77
2019-03-01T17:33:09.729Z,8.20
2019-03-01T17:35:41.847Z,7.83
2019-03-01T17:38:11.374Z,7.70
2019-03-01T17:40:41.807Z,7.50
2019-03-01T17:43:12.551Z,7.43
2019-03-01T17:45:43.088Z,8.17
2019-03-01T17:48:13.608Z,8.20
2019-03-01T17:50:44.796Z,8.57
2019-03-01T17:53:16.269Z,8.90
2019-03-01T17:55:46.843Z,8.73
2019-03-01T17:58:17.327Z,8.73
2019-03-01T18:00:48.023Z,9.67
2019-03-01T18:03:18.650Z,11.07
2019-03-01T18:05:48.800Z,10.60
2019-03-01T18:08:19.245Z,12.90
2019-03-01T18:10:49.915Z,11.63
2019-03-01T18:13:20.246Z,11.70
2019-03-01T18:15:50.725Z,11.40
2019-03-01T18:18:21.031Z,10.53
2019-03-01T18:20:51.545Z,10.90
2019-03-01T18:23:22.086Z,10.37
2019-03-01T18:25:51.889Z,11.00
2019-03-01T18:28:24.894Z,10.60
2019-03-01T18:30:56.167Z,10.07
2019-03-01T18:33:27.063Z,10.33
2019-03-01T18:35:57.545Z,10.80
2019-03-01T18:38:31.289Z,10.73
2019-03-01T18:41:01.379Z,10.07
2019-03-01T18:43:32.069Z,10.97
2019-03-01T18:46:02.613Z,10.70
2019-03-01T18:48:33.658Z,10.37
2019-03-01T18:51:06.787Z,10.10
2019-03-01T18:53:36.395Z,10.23
2019-03-01T18:56:07.075Z,10.30
2019-03-01T18:58:37.719Z,10.53
2019-03-01T19:01:10.906Z,10.57
2019-03-01T19:03:41.605Z,9.77
2019-03-01T19:06:12.938Z,10.03
2019-03-01T19:08:43.832Z,10.33
2019-03-01T19:11:14.187Z,9.80
2019-03-01T19:13:44.697Z,8.83
2019-03-01T19:16:15.219Z,10.00
2019-03-01T19:18:48.229Z,10.77
2019-03-01T19:21:18.253Z,10.90
2019-03-01T19:23:48.153Z,10.67
2019-03-01T19:26:18.836Z,11.03
2019-03-01T19:28:49.313Z,11.43
2019-03-01T19:31:21.628Z,10.87
2019-03-01T19:33:51.319Z,10.90
2019-03-01T19:36:21.115Z,10.20
2019-03-01T19:38:51.305Z,11.63
2019-03-01T19:41:22.890Z,13.63
2019-03-01T19:43:57.453Z,13.57
2019-03-01T19:46:26.630Z,12.27
2019-03-01T19:48:57.775Z,13.47
2019-03-01T19:51:28.126Z,13.90
2019-03-01T19:54:01.047Z,14.03
2019-03-01T19:56:31.031Z,14.23
2019-03-01T19:59:01.250Z,15.23
2019-03-01T20:01:31.415Z,16.43
2019-03-01T20:04:01.785Z,16.30
2019-03-01T20:06:32.368Z,15.20
2019-03-01T20:09:04.531Z,15.70
2019-03-01T20:11:35.663Z,15.50
2019-03-01T20:14:06.228Z,16.23
2019-03-01T20:16:36.777Z,17.57
2019-03-01T20:19:07.216Z,17.07
2019-03-01T20:21:37.443Z,17.93
2019-03-01T20:24:08.183Z,18.47
2019-03-01T20:26:38.927Z,18.23
2019-03-01T20:29:09.443Z,17.80
2019-03-01T20:31:40.478Z,19.20
2019-03-01T20:34:12.274Z,19.80
2019-03-01T20:36:42.501Z,18.90
2019-03-01T20:39:15.610Z,16.20
2019-03-01T20:41:46.587Z,17.43
2019-03-01T20:44:19.736Z,13.40
2019-03-01T20:46:50.297Z,13.57
2019-03-01T20:49:21.319Z,13.67
2019-03-01T20:51:52.387Z,13.00
2019-03-01T20:54:25.841Z,15.07
2019-03-01T20:56:57.375Z,16.97
2019-03-01T20:59:27.655Z,17.13
2019-03-01T21:01:58.024Z,17.87
2019-03-01T21:04:28.585Z,17.97
2019-03-01T21:06:59.052Z,19.90
2019-03-01T21:09:29.617Z,18.77
2019-03-01T21:12:02.298Z,20.87
2019-03-01T21:14:32.667Z,21.53
2019-03-01T21:17:03.280Z,21.90
2019-03-01T21:19:33.901Z,21.97
2019-03-01T21:22:04.803Z,23.83
2019-03-01T21:24:36.197Z,24.13
2019-03-01T21:27:06.439Z,25.07
2019-03-01T21:29:36.738Z,25.97
2019-03-01T21:32:07.317Z,26.77
2019-03-01T21:34:38.375Z,24.33
2019-03-01T21:37:09.736Z,22.77
2019-03-01T21:39:40.217Z,25.93
2019-03-01T21:42:11.175Z,23.83
2019-03-01T21:44:42.633Z,24.10
2019-03-01T21:47:13.730Z,25.63
2019-03-01T21:49:45.248Z,25.33
2019-03-01T21:52:15.816Z,26.83
2019-03-01T21:54:48.578Z,27.40
2019-03-01T21:57:18.385Z,27.67
2019-03-01T21:59:49.657Z,28.03
2019-03-01T22:02:20.943Z,30.40
2019-03-01T22:04:51.464Z,30.07
2019-03-01T22:07:22.049Z,29.20
2019-03-01T22:09:52.627Z,32.07
2019-03-01T22:12:24.622Z,33.87
2019-03-01T22:14:55.383Z,35.07
2019-03-01T22:17:25.971Z,34.70
2019-03-01T22:19:56.441Z,32.93
2019-03-01T22:22:26.964Z,37.03
2019-03-01T22:24:58.616Z,35.57
2019-03-01T22:27:29.481Z,34.17
2019-03-01T22:30:00.093Z,34.63
2019-03-01T22:32:30.847Z,30.60
2019-03-01T22:35:03.159Z,30.33
2019-03-01T22:37:33.124Z,30.53
2019-03-01T22:40:03.569Z,31.00
2019-03-01T22:42:34.199Z,28.87
2019-03-01T22:45:04.417Z,31.00
2019-03-01T22:47:36.057Z,30.17
2019-03-01T22:50:09.123Z,31.03
2019-03-01T22:52:39.081Z,29.80
2019-03-01T22:55:10.325Z,29.63
2019-03-01T22:57:40.499Z,31.53
2019-03-01T23:00:22.658Z,30.63
2019-03-01T23:02:53.273Z,30.63
2019-03-01T23:05:23.868Z,31.30
2019-03-01T23:07:56.900Z,31.77
2019-03-01T23:10:26.670Z,30.40
2019-03-01T23:12:59.412Z,31.40
2019-03-01T23:15:29.803Z,29.90
2019-03-01T23:18:01.800Z,31.00
2019-03-01T23:20:32.279Z,31.63
2019-03-01T23:23:02.611Z,31.67
2019-03-01T23:25:32.531Z,30.07
2019-03-01T23:28:04.023Z,31.17
2019-03-01T23:30:35.153Z,30.17
2019-03-01T23:33:05.769Z,31.90
2019-03-01T23:35:36.247Z,31.50
2019-03-01T23:38:06.457Z,31.50
2019-03-01T23:40:36.881Z,31.13
2019-03-01T23:43:07.240Z,31.90
2019-03-01T23:45:37.455Z,30.63
2019-03-01T23:48:10.656Z,32.73
2019-03-01T23:50:40.452Z,32.87
2019-03-01T23:53:11.026Z,32.87
2019-03-01T23:55:41.691Z,32.37
2019-03-01T23:58:12.607Z,31.00
